sensor_id;sensor_type;location;lat;lon;timestamp;temperature;humidity
9201;DHT22;4635;48.686;9.008;2023-07-08T00:05:10;21.10;1.00
9201;DHT22;4635;48.686;9.008;2023-07-08T00:07:57;21.10;1.00
9201;DHT22;4635;48.686;9.008;2023-07-08T00:10:47;21.00;1.00
9201;DHT22;4635;48.686;9.008;2023-07-08T00:13:39;21.00;1.00
9201;DHT22;4635;48.686;9.008;2023-07-08T00:16:23;21.00;1.00
9201;DHT22;4635;48.686;9.008;2023-07-08T00:19:07;20.90;1.00
9201;DHT22;4635;48.686;9.008;2023-07-08T00:21:39;20.80;1.00
9201;DHT22;4635;48.686;9.008;2023-07-08T00:24:09;20.90;1.00
9201;DHT22;4635;48.686;9.008;2023-07-08T00:26:37;20.80;1.00
9201;DHT22;4635;48.686;9.008;2023-07-08T00:29:18;20.60;1.00
9201;DHT22;4635;48.686;9.008;2023-07-08T00:31:59;20.60;1.00
9201;DHT22;4635;48.686;9.008;2023-07-08T00:34:40;20.50;1.00
9201;DHT22;4635;48.686;9.008;2023-07-08T00:37:10;20.40;1.00
9201;DHT22;4635;48.686;9.008;2023-07-08T00:39:37;20.40;1.00
9201;DHT22;4635;48.686;9.008;2023-07-08T00:42:10;20.30;1.00
9201;DHT22;4635;48.686;9.008;2023-07-08T00:44:46;20.30;1.00
9201;DHT22;4635;48.686;9.008;2023-07-08T00:47:21;20.40;1.00
9201;DHT22;4635;48.686;9.008;2023-07-08T00:49:54;20.20;1.00
9201;DHT22;4635;48.686;9.008;2023-07-08T00:52:33;20.20;1.00
9201;DHT22;4635;48.686;9.008;2023-07-08T00:55:04;20.10;1.00
9201;DHT22;4635;48.686;9.008;2023-07-08T00:57:33;20.00;1.00
9201;DHT22;4635;48.686;9.008;2023-07-08T01:00:04;19.90;1.00
9201;DHT22;4635;48.686;9.008;2023-07-08T01:02:35;19.80;1.00
9201;DHT22;4635;48.686;9.008;2023-07-08T01:05:05;19.70;1.00
9201;DHT22;4635;48.686;9.008;2023-07-08T01:07:42;19.70;1.00
9201;DHT22;4635;48.686;9.008;2023-07-08T01:10:26;19.70;1.00
9201;DHT22;4635;48.686;9.008;2023-07-08T01:12:58;19.70;1.00
9201;DHT22;4635;48.686;9.008;2023-07-08T01:15:40;19.70;1.00
9201;DHT22;4635;48.686;9.008;2023-07-08T01:18:22;19.60;1.00
9201;DHT22;4635;48.686;9.008;2023-07-08T01:20:50;19.50;1.00
9201;DHT22;4635;48.686;9.008;2023-07-08T01:23:23;19.40;1.00
9201;DHT22;4635;48.686;9.008;2023-07-08T01:25:51;19.30;1.00
9201;DHT22;4635;48.686;9.008;2023-07-08T01:28:26;19.30;1.00
9201;DHT22;4635;48.686;9.008;2023-07-08T01:30:55;19.20;1.00
9201;DHT22;4635;48.686;9.008;2023-07-08T01:33:23;19.10;1.00
9201;DHT22;4635;48.686;9.008;2023-07-08T01:36:08;19.00;1.00
9201;DHT22;4635;48.686;9.008;2023-07-08T01:38:42;19.10;1.00
9201;DHT22;4635;48.686;9.008;2023-07-08T01:41:10;18.90;1.00
9201;DHT22;4635;48.686;9.008;2023-07-08T01:43:44;18.90;1.00
9201;DHT22;4635;48.686;9.008;2023-07-08T01:46:15;19.00;1.00
9201;DHT22;4635;48.686;9.008;2023-07-08T01:48:48;18.80;1.00
9201;DHT22;4635;48.686;9.008;2023-07-08T01:51:39;18.70;1.00
9201;DHT22;4635;48.686;9.008;2023-07-08T01:59:59;18.60;1.00
9201;DHT22;4635;48.686;9.008;2023-07-08T02:02:26;18.60;1.00
9201;DHT22;4635;48.686;9.008;2023-07-08T02:05:08;18.50;1.00
9201;DHT22;4635;48.686;9.008;2023-07-08T02:07:37;18.50;1.00
9201;DHT22;4635;48.686;9.008;2023-07-08T02:10:05;18.50;1.00
9201;DHT22;4635;48.686;9.008;2023-07-08T02:12:46;18.50;1.00
9201;DHT22;4635;48.686;9.008;2023-07-08T02:15:18;18.60;1.00
9201;DHT22;4635;48.686;9.008;2023-07-08T02:17:52;18.60;1.00
9201;DHT22;4635;48.686;9.008;2023-07-08T02:20:33;18.50;1.00
9201;DHT22;4635;48.686;9.008;2023-07-08T02:23:01;18.40;1.00
9201;DHT22;4635;48.686;9.008;2023-07-08T02:25:30;18.50;1.00
9201;DHT22;4635;48.686;9.008;2023-07-08T02:27:59;18.40;1.00
9201;DHT22;4635;48.686;9.008;2023-07-08T02:30:39;18.40;1.00
9201;DHT22;4635;48.686;9.008;2023-07-08T02:33:14;18.40;1.00
9201;DHT22;4635;48.686;9.008;2023-07-08T02:36:00;18.40;1.00
9201;DHT22;4635;48.686;9.008;2023-07-08T02:38:41;18.40;1.00
9201;DHT22;4635;48.686;9.008;2023-07-08T02:41:08;18.40;1.00
9201;DHT22;4635;48.686;9.008;2023-07-08T02:43:39;18.40;1.00
9201;DHT22;4635;48.686;9.008;2023-07-08T02:48:58;18.30;1.00
9201;DHT22;4635;48.686;9.008;2023-07-08T02:51:28;18.20;1.00
9201;DHT22;4635;48.686;9.008;2023-07-08T02:53:56;18.20;1.00
9201;DHT22;4635;48.686;9.008;2023-07-08T02:56:24;18.00;1.00
9201;DHT22;4635;48.686;9.008;2023-07-08T02:59:07;17.90;1.00
9201;DHT22;4635;48.686;9.008;2023-07-08T03:01:38;18.00;1.00
9201;DHT22;4635;48.686;9.008;2023-07-08T03:04:13;18.10;1.00
9201;DHT22;4635;48.686;9.008;2023-07-08T03:06:49;18.10;1.00
9201;DHT22;4635;48.686;9.008;2023-07-08T03:09:16;18.10;1.00
9201;DHT22;4635;48.686;9.008;2023-07-08T03:11:55;18.10;1.00
9201;DHT22;4635;48.686;9.008;2023-07-08T03:20:47;17.90;1.00
9201;DHT22;4635;48.686;9.008;2023-07-08T03:23:30;18.10;1.00
9201;DHT22;4635;48.686;9.008;2023-07-08T03:26:13;18.00;1.00
9201;DHT22;4635;48.686;9.008;2023-07-08T03:42:56;17.70;1.00
9201;DHT22;4635;48.686;9.008;2023-07-08T03:45:37;17.70;1.00
9201;DHT22;4635;48.686;9.008;2023-07-08T03:48:05;17.70;1.00
9201;DHT22;4635;48.686;9.008;2023-07-08T03:50:37;17.70;1.00
9201;DHT22;4635;48.686;9.008;2023-07-08T03:53:19;17.70;1.00
9201;DHT22;4635;48.686;9.008;2023-07-08T03:56:00;17.90;1.00
9201;DHT22;4635;48.686;9.008;2023-07-08T03:58:48;18.00;1.00
9201;DHT22;4635;48.686;9.008;2023-07-08T04:01:18;18.10;1.00
9201;DHT22;4635;48.686;9.008;2023-07-08T04:04:08;18.20;1.00
9201;DHT22;4635;48.686;9.008;2023-07-08T04:06:51;18.30;1.00
9201;DHT22;4635;48.686;9.008;2023-07-08T04:09:22;18.50;1.00
9201;DHT22;4635;48.686;9.008;2023-07-08T04:12:07;18.70;1.00
9201;DHT22;4635;48.686;9.008;2023-07-08T04:14:37;18.70;1.00
9201;DHT22;4635;48.686;9.008;2023-07-08T04:17:13;18.90;1.00
9201;DHT22;4635;48.686;9.008;2023-07-08T04:19:55;19.00;1.00
9201;DHT22;4635;48.686;9.008;2023-07-08T04:22:22;19.10;1.00
9201;DHT22;4635;48.686;9.008;2023-07-08T04:24:51;19.20;1.00
9201;DHT22;4635;48.686;9.008;2023-07-08T04:27:26;19.30;1.00
9201;DHT22;4635;48.686;9.008;2023-07-08T04:33:07;19.20;1.00
9201;DHT22;4635;48.686;9.008;2023-07-08T04:35:38;19.00;1.00
9201;DHT22;4635;48.686;9.008;2023-07-08T04:38:06;19.00;1.00
9201;DHT22;4635;48.686;9.008;2023-07-08T04:44:06;18.70;1.00
9201;DHT22;4635;48.686;9.008;2023-07-08T04:46:42;18.70;1.00
9201;DHT22;4635;48.686;9.008;2023-07-08T04:49:13;18.70;1.00
9201;DHT22;4635;48.686;9.008;2023-07-08T04:51:42;18.90;1.00
9201;DHT22;4635;48.686;9.008;2023-07-08T04:54:09;19.00;1.00
9201;DHT22;4635;48.686;9.008;2023-07-08T04:56:47;19.00;1.00
9201;DHT22;4635;48.686;9.008;2023-07-08T04:59:18;19.10;1.00
9201;DHT22;4635;48.686;9.008;2023-07-08T05:01:46;19.20;1.00
9201;DHT22;4635;48.686;9.008;2023-07-08T05:04:16;19.30;1.00
9201;DHT22;4635;48.686;9.008;2023-07-08T05:06:44;19.40;1.00
9201;DHT22;4635;48.686;9.008;2023-07-08T05:09:12;19.50;1.00
9201;DHT22;4635;48.686;9.008;2023-07-08T05:11:56;19.70;1.00
9201;DHT22;4635;48.686;9.008;2023-07-08T05:14:23;19.90;1.00
9201;DHT22;4635;48.686;9.008;2023-07-08T05:16:52;20.10;1.00
9201;DHT22;4635;48.686;9.008;2023-07-08T05:19:21;20.30;1.00
9201;DHT22;4635;48.686;9.008;2023-07-08T05:21:51;20.40;1.00
9201;DHT22;4635;48.686;9.008;2023-07-08T05:24:19;20.40;1.00
9201;DHT22;4635;48.686;9.008;2023-07-08T05:26:55;20.60;1.00
9201;DHT22;4635;48.686;9.008;2023-07-08T05:29:25;20.70;1.00
9201;DHT22;4635;48.686;9.008;2023-07-08T05:31:53;20.80;1.00
9201;DHT22;4635;48.686;9.008;2023-07-08T05:34:22;21.00;1.00
9201;DHT22;4635;48.686;9.008;2023-07-08T05:36:51;21.20;1.00
9201;DHT22;4635;48.686;9.008;2023-07-08T05:39:25;21.40;1.00
9201;DHT22;4635;48.686;9.008;2023-07-08T05:41:52;21.60;1.00
9201;DHT22;4635;48.686;9.008;2023-07-08T05:44:19;21.70;1.00
9201;DHT22;4635;48.686;9.008;2023-07-08T05:46:52;21.80;1.00
9201;DHT22;4635;48.686;9.008;2023-07-08T05:49:34;21.80;1.00
9201;DHT22;4635;48.686;9.008;2023-07-08T05:52:02;21.90;1.00
9201;DHT22;4635;48.686;9.008;2023-07-08T05:54:34;22.00;1.00
9201;DHT22;4635;48.686;9.008;2023-07-08T05:57:02;22.00;1.00
9201;DHT22;4635;48.686;9.008;2023-07-08T05:59:31;22.00;1.00
9201;DHT22;4635;48.686;9.008;2023-07-08T06:02:01;22.10;1.00
9201;DHT22;4635;48.686;9.008;2023-07-08T06:04:29;22.00;1.00
9201;DHT22;4635;48.686;9.008;2023-07-08T06:07:00;22.20;1.00
9201;DHT22;4635;48.686;9.008;2023-07-08T06:09:28;22.20;1.00
9201;DHT22;4635;48.686;9.008;2023-07-08T06:11:56;22.40;1.00
9201;DHT22;4635;48.686;9.008;2023-07-08T06:14:23;22.60;1.00
9201;DHT22;4635;48.686;9.008;2023-07-08T06:16:54;22.60;1.00
9201;DHT22;4635;48.686;9.008;2023-07-08T06:19:22;22.80;1.00
9201;DHT22;4635;48.686;9.008;2023-07-08T06:21:51;23.00;1.00
9201;DHT22;4635;48.686;9.008;2023-07-08T06:28:00;22.80;1.00
9201;DHT22;4635;48.686;9.008;2023-07-08T06:30:32;22.80;1.00
9201;DHT22;4635;48.686;9.008;2023-07-08T06:33:02;22.80;1.00
9201;DHT22;4635;48.686;9.008;2023-07-08T06:35:35;22.90;1.00
9201;DHT22;4635;48.686;9.008;2023-07-08T06:38:08;22.90;1.00
9201;DHT22;4635;48.686;9.008;2023-07-08T06:40:39;22.90;1.00
9201;DHT22;4635;48.686;9.008;2023-07-08T06:43:09;23.00;1.00
9201;DHT22;4635;48.686;9.008;2023-07-08T06:45:49;22.90;1.00
9201;DHT22;4635;48.686;9.008;2023-07-08T06:48:22;23.00;1.00
9201;DHT22;4635;48.686;9.008;2023-07-08T06:50:50;23.20;1.00
9201;DHT22;4635;48.686;9.008;2023-07-08T06:53:37;23.50;1.00
9201;DHT22;4635;48.686;9.008;2023-07-08T06:56:18;23.60;1.00
9201;DHT22;4635;48.686;9.008;2023-07-08T06:58:47;23.50;1.00
9201;DHT22;4635;48.686;9.008;2023-07-08T07:01:18;23.60;1.00
9201;DHT22;4635;48.686;9.008;2023-07-08T07:03:50;23.40;1.00
9201;DHT22;4635;48.686;9.008;2023-07-08T07:06:18;23.40;1.00
9201;DHT22;4635;48.686;9.008;2023-07-08T07:08:45;23.50;1.00
9201;DHT22;4635;48.686;9.008;2023-07-08T07:11:13;23.50;1.00
9201;DHT22;4635;48.686;9.008;2023-07-08T07:13:50;23.60;1.00
9201;DHT22;4635;48.686;9.008;2023-07-08T07:16:19;23.80;1.00
9201;DHT22;4635;48.686;9.008;2023-07-08T07:18:46;23.50;1.00
9201;DHT22;4635;48.686;9.008;2023-07-08T07:21:16;23.60;1.00
9201;DHT22;4635;48.686;9.008;2023-07-08T07:23:57;23.70;1.00
9201;DHT22;4635;48.686;9.008;2023-07-08T07:26:25;23.90;1.00
9201;DHT22;4635;48.686;9.008;2023-07-08T07:32:31;23.90;1.00
9201;DHT22;4635;48.686;9.008;2023-07-08T07:35:34;24.00;1.00
9201;DHT22;4635;48.686;9.008;2023-07-08T07:38:19;24.10;1.00
9201;DHT22;4635;48.686;9.008;2023-07-08T07:41:00;24.20;1.00
9201;DHT22;4635;48.686;9.008;2023-07-08T07:43:35;24.20;1.00
9201;DHT22;4635;48.686;9.008;2023-07-08T07:46:08;24.30;1.00
9201;DHT22;4635;48.686;9.008;2023-07-08T07:51:39;24.50;1.00
9201;DHT22;4635;48.686;9.008;2023-07-08T07:54:11;24.70;1.00
9201;DHT22;4635;48.686;9.008;2023-07-08T07:56:58;24.80;1.00
9201;DHT22;4635;48.686;9.008;2023-07-08T08:00:23;25.00;1.00
9201;DHT22;4635;48.686;9.008;2023-07-08T08:03:18;25.10;1.00
9201;DHT22;4635;48.686;9.008;2023-07-08T08:05:51;24.70;1.00
9201;DHT22;4635;48.686;9.008;2023-07-08T08:08:21;24.40;1.00
9201;DHT22;4635;48.686;9.008;2023-07-08T08:10:58;24.20;1.00
9201;DHT22;4635;48.686;9.008;2023-07-08T08:13:49;24.40;1.00
9201;DHT22;4635;48.686;9.008;2023-07-08T08:16:30;24.40;1.00
9201;DHT22;4635;48.686;9.008;2023-07-08T08:19:22;24.50;1.00
9201;DHT22;4635;48.686;9.008;2023-07-08T08:22:08;25.00;1.00
9201;DHT22;4635;48.686;9.008;2023-07-08T08:24:51;25.20;1.00
9201;DHT22;4635;48.686;9.008;2023-07-08T08:27:20;25.20;1.00
9201;DHT22;4635;48.686;9.008;2023-07-08T08:29:49;25.50;1.00
9201;DHT22;4635;48.686;9.008;2023-07-08T08:35:49;27.20;1.00
9201;DHT22;4635;48.686;9.008;2023-07-08T08:38:30;27.70;1.00
9201;DHT22;4635;48.686;9.008;2023-07-08T08:50:11;30.00;1.00
9201;DHT22;4635;48.686;9.008;2023-07-08T08:52:53;31.00;1.00
9201;DHT22;4635;48.686;9.008;2023-07-08T08:55:41;31.40;1.00
9201;DHT22;4635;48.686;9.008;2023-07-08T08:58:33;31.70;1.00
9201;DHT22;4635;48.686;9.008;2023-07-08T09:01:20;32.40;1.00
9201;DHT22;4635;48.686;9.008;2023-07-08T09:04:12;31.80;1.00
9201;DHT22;4635;48.686;9.008;2023-07-08T09:06:57;31.20;1.00
9201;DHT22;4635;48.686;9.008;2023-07-08T09:09:32;30.40;1.00
9201;DHT22;4635;48.686;9.008;2023-07-08T09:12:10;29.50;1.00
9201;DHT22;4635;48.686;9.008;2023-07-08T09:14:58;29.40;1.00
9201;DHT22;4635;48.686;9.008;2023-07-08T09:18:07;29.50;1.00
9201;DHT22;4635;48.686;9.008;2023-07-08T09:32:08;32.10;1.00
9201;DHT22;4635;48.686;9.008;2023-07-08T09:35:04;33.40;1.00
9201;DHT22;4635;48.686;9.008;2023-07-08T09:37:46;34.10;1.00
9201;DHT22;4635;48.686;9.008;2023-07-08T09:40:35;34.90;1.00
9201;DHT22;4635;48.686;9.008;2023-07-08T09:43:48;35.50;1.00
9201;DHT22;4635;48.686;9.008;2023-07-08T09:46:53;35.50;1.00
9201;DHT22;4635;48.686;9.008;2023-07-08T10:57:26;32.20;1.00
9201;DHT22;4635;48.686;9.008;2023-07-08T11:06:30;32.10;1.00
9201;DHT22;4635;48.686;9.008;2023-07-08T11:09:32;32.50;1.00
9201;DHT22;4635;48.686;9.008;2023-07-08T11:18:33;33.60;1.00
9201;DHT22;4635;48.686;9.008;2023-07-08T11:21:22;34.50;1.00
9201;DHT22;4635;48.686;9.008;2023-07-08T11:24:02;36.00;1.00
9201;DHT22;4635;48.686;9.008;2023-07-08T11:35:05;35.10;1.00
9201;DHT22;4635;48.686;9.008;2023-07-08T11:39:33;34.00;1.00
9201;DHT22;4635;48.686;9.008;2023-07-08T11:48:03;40.10;1.00
9201;DHT22;4635;48.686;9.008;2023-07-08T11:50:51;39.00;1.00
9201;DHT22;4635;48.686;9.008;2023-07-08T11:53:37;38.40;1.00
9201;DHT22;4635;48.686;9.008;2023-07-08T11:59:57;36.10;1.00
9201;DHT22;4635;48.686;9.008;2023-07-08T12:02:19;35.70;1.00
9201;DHT22;4635;48.686;9.008;2023-07-08T12:08:13;35.60;1.00
9201;DHT22;4635;48.686;9.008;2023-07-08T12:10:56;36.70;1.00
9201;DHT22;4635;48.686;9.008;2023-07-08T12:13:37;38.30;1.00
9201;DHT22;4635;48.686;9.008;2023-07-08T12:16:15;39.70;1.00
9201;DHT22;4635;48.686;9.008;2023-07-08T12:18:53;38.90;1.00
9201;DHT22;4635;48.686;9.008;2023-07-08T12:28:16;38.40;1.00
9201;DHT22;4635;48.686;9.008;2023-07-08T12:31:51;37.30;1.00
9201;DHT22;4635;48.686;9.008;2023-07-08T12:35:00;36.40;1.00
9201;DHT22;4635;48.686;9.008;2023-07-08T12:38:05;35.30;1.00
9201;DHT22;4635;48.686;9.008;2023-07-08T12:44:14;36.80;1.00
9201;DHT22;4635;48.686;9.008;2023-07-08T12:52:44;39.50;1.00
9201;DHT22;4635;48.686;9.008;2023-07-08T13:37:44;34.50;1.00
9201;DHT22;4635;48.686;9.008;2023-07-08T13:40:45;33.30;1.00
9201;DHT22;4635;48.686;9.008;2023-07-08T13:43:29;32.20;1.00
9201;DHT22;4635;48.686;9.008;2023-07-08T13:49:31;33.10;1.00
9201;DHT22;4635;48.686;9.008;2023-07-08T13:52:39;32.90;1.00
9201;DHT22;4635;48.686;9.008;2023-07-08T13:55:36;33.20;1.00
9201;DHT22;4635;48.686;9.008;2023-07-08T13:58:25;33.50;1.00
9201;DHT22;4635;48.686;9.008;2023-07-08T14:04:25;33.40;1.00
9201;DHT22;4635;48.686;9.008;2023-07-08T14:13:40;32.30;1.00
9201;DHT22;4635;48.686;9.008;2023-07-08T14:16:20;31.50;1.00
9201;DHT22;4635;48.686;9.008;2023-07-08T14:19:10;31.00;1.00
9201;DHT22;4635;48.686;9.008;2023-07-08T14:21:47;31.20;1.00
9201;DHT22;4635;48.686;9.008;2023-07-08T14:24:36;30.90;1.00
9201;DHT22;4635;48.686;9.008;2023-07-08T14:27:18;30.60;1.00
9201;DHT22;4635;48.686;9.008;2023-07-08T14:33:43;31.40;1.00
9201;DHT22;4635;48.686;9.008;2023-07-08T14:36:19;31.60;1.00
9201;DHT22;4635;48.686;9.008;2023-07-08T14:39:01;31.90;1.00
9201;DHT22;4635;48.686;9.008;2023-07-08T14:42:04;31.50;1.00
9201;DHT22;4635;48.686;9.008;2023-07-08T14:44:48;31.30;1.00
9201;DHT22;4635;48.686;9.008;2023-07-08T14:47:22;31.40;1.00
9201;DHT22;4635;48.686;9.008;2023-07-08T14:52:46;31.00;1.00
9201;DHT22;4635;48.686;9.008;2023-07-08T14:55:36;31.00;1.00
9201;DHT22;4635;48.686;9.008;2023-07-08T15:01:32;31.30;1.00
9201;DHT22;4635;48.686;9.008;2023-07-08T15:04:14;31.10;1.00
9201;DHT22;4635;48.686;9.008;2023-07-08T15:06:56;30.90;1.00
9201;DHT22;4635;48.686;9.008;2023-07-08T15:09:43;30.90;1.00
9201;DHT22;4635;48.686;9.008;2023-07-08T15:12:36;31.00;1.00
9201;DHT22;4635;48.686;9.008;2023-07-08T15:17:59;31.30;1.00
9201;DHT22;4635;48.686;9.008;2023-07-08T15:33:12;30.60;1.00
9201;DHT22;4635;48.686;9.008;2023-07-08T15:35:58;30.60;1.00
9201;DHT22;4635;48.686;9.008;2023-07-08T15:38:47;30.40;1.00
9201;DHT22;4635;48.686;9.008;2023-07-08T15:41:28;30.20;1.00
9201;DHT22;4635;48.686;9.008;2023-07-08T15:44:53;30.20;1.00
9201;DHT22;4635;48.686;9.008;2023-07-08T15:46:51;30.50;1.00
9201;DHT22;4635;48.686;9.008;2023-07-08T15:52:55;30.60;1.00
9201;DHT22;4635;48.686;9.008;2023-07-08T15:55:42;30.70;1.00
9201;DHT22;4635;48.686;9.008;2023-07-08T15:58:28;30.70;1.00
9201;DHT22;4635;48.686;9.008;2023-07-08T16:07:08;31.00;1.00
9201;DHT22;4635;48.686;9.008;2023-07-08T16:18:54;30.90;1.00
9201;DHT22;4635;48.686;9.008;2023-07-08T16:21:35;30.80;1.00
9201;DHT22;4635;48.686;9.008;2023-07-08T16:24:31;30.30;1.00
9201;DHT22;4635;48.686;9.008;2023-07-08T16:32:30;30.20;1.00
9201;DHT22;4635;48.686;9.008;2023-07-08T17:23:34;30.00;1.00
9201;DHT22;4635;48.686;9.008;2023-07-08T17:26:23;30.00;1.00
9201;DHT22;4635;48.686;9.008;2023-07-08T17:29:17;29.90;1.00
9201;DHT22;4635;48.686;9.008;2023-07-08T17:32:09;29.80;1.00
9201;DHT22;4635;48.686;9.008;2023-07-08T17:44:21;29.80;1.00
9201;DHT22;4635;48.686;9.008;2023-07-08T17:50:12;29.80;1.00
9201;DHT22;4635;48.686;9.008;2023-07-08T17:52:56;29.80;1.00
9201;DHT22;4635;48.686;9.008;2023-07-08T17:55:59;29.70;1.00
9201;DHT22;4635;48.686;9.008;2023-07-08T17:58:57;29.70;1.00
9201;DHT22;4635;48.686;9.008;2023-07-08T18:24:20;29.10;1.00
9201;DHT22;4635;48.686;9.008;2023-07-08T18:26:52;29.10;1.00
9201;DHT22;4635;48.686;9.008;2023-07-08T18:32:20;29.10;1.00
9201;DHT22;4635;48.686;9.008;2023-07-08T18:35:11;29.10;1.00
9201;DHT22;4635;48.686;9.008;2023-07-08T18:38:00;28.90;1.00
9201;DHT22;4635;48.686;9.008;2023-07-08T18:40:39;28.80;1.00
9201;DHT22;4635;48.686;9.008;2023-07-08T18:46:55;28.60;1.00
9201;DHT22;4635;48.686;9.008;2023-07-08T18:49:12;28.50;1.00
9201;DHT22;4635;48.686;9.008;2023-07-08T18:51:54;28.40;1.00
9201;DHT22;4635;48.686;9.008;2023-07-08T18:54:56;28.30;1.00
9201;DHT22;4635;48.686;9.008;2023-07-08T18:57:45;28.20;1.00
9201;DHT22;4635;48.686;9.008;2023-07-08T19:00:48;28.00;1.00
9201;DHT22;4635;48.686;9.008;2023-07-08T19:03:31;27.80;1.00
9201;DHT22;4635;48.686;9.008;2023-07-08T19:06:39;27.70;1.00
9201;DHT22;4635;48.686;9.008;2023-07-08T19:09:22;27.50;1.00
9201;DHT22;4635;48.686;9.008;2023-07-08T19:12:43;27.30;1.00
9201;DHT22;4635;48.686;9.008;2023-07-08T19:18:44;27.30;1.00
9201;DHT22;4635;48.686;9.008;2023-07-08T19:22:16;27.10;1.00
9201;DHT22;4635;48.686;9.008;2023-07-08T19:24:29;26.90;1.00
9201;DHT22;4635;48.686;9.008;2023-07-08T19:27:12;26.80;1.00
9201;DHT22;4635;48.686;9.008;2023-07-08T19:33:12;26.40;1.00
9201;DHT22;4635;48.686;9.008;2023-07-08T19:39:13;26.40;1.00
9201;DHT22;4635;48.686;9.008;2023-07-08T19:45:08;26.20;1.00
9201;DHT22;4635;48.686;9.008;2023-07-08T19:48:13;26.00;1.00
9201;DHT22;4635;48.686;9.008;2023-07-08T19:51:13;26.00;1.00
9201;DHT22;4635;48.686;9.008;2023-07-08T19:53:59;25.90;1.00
9201;DHT22;4635;48.686;9.008;2023-07-08T20:50:28;24.60;1.00
9201;DHT22;4635;48.686;9.008;2023-07-08T20:52:56;24.50;1.00
9201;DHT22;4635;48.686;9.008;2023-07-08T20:58:18;24.50;1.00
9201;DHT22;4635;48.686;9.008;2023-07-08T21:01:05;24.50;1.00
9201;DHT22;4635;48.686;9.008;2023-07-08T21:03:34;24.50;1.00
9201;DHT22;4635;48.686;9.008;2023-07-08T21:27:34;23.50;1.00
9201;DHT22;4635;48.686;9.008;2023-07-08T21:30:02;23.40;1.00
9201;DHT22;4635;48.686;9.008;2023-07-08T21:32:35;23.30;1.00
9201;DHT22;4635;48.686;9.008;2023-07-08T21:35:38;23.20;1.00
9201;DHT22;4635;48.686;9.008;2023-07-08T21:38:19;23.20;1.00
9201;DHT22;4635;48.686;9.008;2023-07-08T21:40:55;23.10;1.00
9201;DHT22;4635;48.686;9.008;2023-07-08T21:50:31;23.00;1.00
9201;DHT22;4635;48.686;9.008;2023-07-08T21:53:03;23.00;1.00
9201;DHT22;4635;48.686;9.008;2023-07-08T21:55:55;22.90;1.00
9201;DHT22;4635;48.686;9.008;2023-07-08T21:58:28;22.90;1.00
9201;DHT22;4635;48.686;9.008;2023-07-08T22:00:56;22.80;1.00
9201;DHT22;4635;48.686;9.008;2023-07-08T22:03:47;22.70;1.00
9201;DHT22;4635;48.686;9.008;2023-07-08T22:12:13;22.60;1.00
9201;DHT22;4635;48.686;9.008;2023-07-08T22:15:00;22.50;1.00
9201;DHT22;4635;48.686;9.008;2023-07-08T22:17:44;22.50;1.00
9201;DHT22;4635;48.686;9.008;2023-07-08T22:20:26;22.50;1.00
9201;DHT22;4635;48.686;9.008;2023-07-08T22:23:09;22.40;1.00
9201;DHT22;4635;48.686;9.008;2023-07-08T22:25:59;22.40;1.00
9201;DHT22;4635;48.686;9.008;2023-07-08T22:36:26;22.20;1.00
9201;DHT22;4635;48.686;9.008;2023-07-08T22:38:58;22.10;1.00
9201;DHT22;4635;48.686;9.008;2023-07-08T22:44:29;22.00;1.00
9201;DHT22;4635;48.686;9.008;2023-07-08T22:58:44;21.80;1.00
9201;DHT22;4635;48.686;9.008;2023-07-08T23:01:11;21.80;1.00
9201;DHT22;4635;48.686;9.008;2023-07-08T23:03:39;21.70;1.00
9201;DHT22;4635;48.686;9.008;2023-07-08T23:06:08;21.70;1.00
9201;DHT22;4635;48.686;9.008;2023-07-08T23:08:37;21.70;1.00
9201;DHT22;4635;48.686;9.008;2023-07-08T23:11:13;21.60;1.00
9201;DHT22;4635;48.686;9.008;2023-07-08T23:19:50;21.50;1.00
9201;DHT22;4635;48.686;9.008;2023-07-08T23:22:36;21.50;1.00
9201;DHT22;4635;48.686;9.008;2023-07-08T23:25:12;21.40;1.00
9201;DHT22;4635;48.686;9.008;2023-07-08T23:27:53;21.40;1.00
9201;DHT22;4635;48.686;9.008;2023-07-08T23:30:36;21.50;2.10
9201;DHT22;4635;48.686;9.008;2023-07-08T23:33:18;21.40;5.50
9201;DHT22;4635;48.686;9.008;2023-07-08T23:35:53;21.40;25.10
9201;DHT22;4635;48.686;9.008;2023-07-08T23:38:21;21.30;72.90
9201;DHT22;4635;48.686;9.008;2023-07-08T23:40:54;21.30;58.20
9201;DHT22;4635;48.686;9.008;2023-07-08T23:43:22;21.30;58.60
9201;DHT22;4635;48.686;9.008;2023-07-08T23:45:55;21.30;99.90
9201;DHT22;4635;48.686;9.008;2023-07-08T23:48:47;21.10;99.90
9201;DHT22;4635;48.686;9.008;2023-07-08T23:51:46;21.10;99.90
9201;DHT22;4635;48.686;9.008;2023-07-08T23:54:28;21.00;99.90
9201;DHT22;4635;48.686;9.008;2023-07-08T23:56:56;20.90;99.90
9201;DHT22;4635;48.686;9.008;2023-07-08T23:59:24;20.80;99.90
